Aérodrome :
LOGIN :

S'inscrire | Disclaimer

   EN    FR    IT 

 










Légende :    VFR   VFR Marginal   IFR   IFR Intensif   IFR Très Intensif
Visi : 
Plafond : 
>= 8 km
>= 3000ft
5 à 8 km
1000 à 3000 ft
1500m à 5 km
500 à 1000 ft
800 à 1500m
200 à 500 ft
< 800m
< 200 ft
Symboles :   Orages  Brouillard  Fortes neiges  Fortes précipitations  Vent > 20 kt
SIGMETs :   Divers  Orages  Givrage  Turbulence  Onde Orograph.  Cendres Volcan.







- Altitude de l'aérodrome : 141 ft
- Code IATA : SKS


EKSP - Srydstrup Vojens

DERNIER METAR :
  • 181220Z 11011KT CAVOK 17/04 Q1034 RKC/

METARs EXPIRÉS :
  • 181150Z 11012KT CAVOK 16/03 Q1034 RKC/
  • 181120Z 11011KT CAVOK 17/01 Q1034 RKC/
  • 181050Z 08014KT CAVOK 17/02 Q1034 RKC/
  • 181020Z 08014KT CAVOK 16/02 Q1034 RKC/
  • 180950Z 11012KT CAVOK 16/02 Q1034

TAF TAF EKSP
Valide du 18 à 09h jusqu'au 19 à 09h UTC


180755Z 1809/1909 08008KT 9999 FEW200
TEMPO 1810/1815 10012G24KT
Pas de NOTAMs connus pour ce terrain.



MET'MAP, la Météo Aéronautique d'un coup d'oeil ! - Copyright ORBIFLY Décembre 2007 - Disclaimer

ORBIFLY MET'MAP TEAM :

Programmation & Développement : Alexandra Zaïnal
Conception & Développement : Baudouin d'Aumeries
Co-Programmation & Développement : Marc-Olivier Méhu
Soutien technique & logistique : Manuel Goepfert

Contact : metmap@orbifly.com




SOURCES & CREDITS :

   NOAA